OSAP/ALP METAR and TAF weather

Enter ICAO airport designator
Station Type Date Time Source
OSAP METAR 2021/07/27 18:00 UTC NOAA

OSAP 271800Z 30010KT CAVOK 32/15 Q1006


Station Type Date Time Source
OSAP Decoded METAR 2021/07/27 18:00 UTC NOAA

Aleppo International Airport, Syria (OSAP) 36-11N 037-12E 384M
Jul 27, 2021 - 02:00 PM EDT / 2021.07.27 1800 UTC
Wind: from the WNW (300 degrees) at 12 MPH (10 KT):0
Visibility: greater than 7 mile(s):0
Temperature: 89 F (32 C)
Dew Point: 59 F (15 C)
Relative Humidity: 35%
Pressure (altimeter): 29.71 in. Hg (1006 hPa)
ob: OSAP 271800Z 30010KT CAVOK 32/15 Q1006
cycle: 18

Station Type Date Time Source
OSAP TAF 2021/03/03 06:03 UTC NOAA

TAF TAF OSAP 030400Z 0306/0406 06004KT 9999 BKN026 OVC100 PROB30
TEMPO 0309/0312 6000-RA BKN026 OVC100 PROB30
TEMPO 0318/0323 BKN026 OVC100

Example: see airport list